Time;durP1;ratioP1;P1;durP2;ratioP2;P2;SDS_P1;SDS_P2;PMS_P1;PMS_P2;Temp;Humidity;BMP_temperature;BMP_pressure;BME280_temperature;BME280_humidity;BME280_pressure;Samples;Min_cycle;Max_cycle;Signal;HPM_P1;HPM_P2
2022/12/04 00:02:21;;;;;;;0.00;0.00;;;1.70;99.90;;;;;;5046116;28;20068;-83
2022/12/04 00:04:48;;;;;;;0.10;0.10;;;1.80;99.90;;;;;;5044386;28;20041;-84
2022/12/04 00:07:15;;;;;;;0.10;0.10;;;1.80;99.90;;;;;;5044831;28;20527;-83
2022/12/04 00:09:43;;;;;;;0.10;0.10;;;1.80;99.90;;;;;;5046409;28;20648;-82
2022/12/04 00:12:11;;;;;;;0.10;0.10;;;;;;;;;;5047081;28;20413;-82
2022/12/04 00:14:38;;;;;;;0.10;0.10;;;;;;;;;;5042016;28;20063;-82
2022/12/04 00:17:24;;;;;;;0.10;0.10;;;1.90;99.90;;;;;;5038533;28;20100;-82
2022/12/04 00:19:51;;;;;;;0.10;0.10;;;1.90;99.90;;;;;;5041262;28;20134;-82
2022/12/04 00:22:20;;;;;;;0.05;0.05;;;1.90;99.90;;;;;;5041621;28;20048;-81
2022/12/04 00:29:09;;;;;;;0.17;0.17;;;1.80;99.90;;;;;;5045340;28;20393;-84
2022/12/04 00:31:36;;;;;;;0.10;0.10;;;1.70;99.90;;;;;;5042589;28;20056;-82
2022/12/04 00:34:03;;;;;;;0.10;0.10;;;1.70;99.90;;;;;;5047137;28;20041;-83
2022/12/04 00:36:34;;;;;;;0.10;0.10;;;1.60;99.90;;;;;;5043073;28;20047;-83
2022/12/04 00:39:01;;;;;;;0.00;0.00;;;1.60;99.90;;;;;;5046674;28;20122;-83
2022/12/04 00:41:30;;;;;;;0.03;0.03;;;1.70;99.90;;;;;;5043907;28;20524;-83
2022/12/04 00:43:57;;;;;;;0.10;0.10;;;;;;;;;;5048464;28;20057;-83
2022/12/04 00:46:25;;;;;;;0.03;0.03;;;1.70;99.90;;;;;;5049210;28;20417;-85
2022/12/04 00:48:52;;;;;;;0.10;0.10;;;1.70;99.90;;;;;;5049416;28;20052;-83
2022/12/04 00:51:23;;;;;;;0.00;0.00;;;1.70;99.90;;;;;;5037555;28;20041;-83
2022/12/04 00:53:51;;;;;;;0.10;0.10;;;1.80;99.90;;;;;;5052680;28;20044;-82
2022/12/04 00:56:21;;;;;;;0.10;0.10;;;1.80;99.90;;;;;;5051133;28;20045;-82
2022/12/04 00:58:50;;;;;;;;;;;1.90;99.90;;;;;;5050245;28;20087;-83
2022/12/04 01:01:19;;;;;;;0.10;0.10;;;1.90;99.90;;;;;;5060600;28;20028;-83
2022/12/04 01:03:48;;;;;;;0.00;0.00;;;1.80;99.90;;;;;;5046842;28;20040;-82
2022/12/04 01:10:24;;;;;;;0.10;0.10;;;1.80;99.90;;;;;;5047787;28;20393;-82
2022/12/04 01:16:53;;;;;;;0.20;0.20;;;1.80;99.90;;;;;;5046609;28;20148;-82
2022/12/04 01:19:22;;;;;;;0.00;0.00;;;1.70;99.90;;;;;;5048196;28;20045;-82
2022/12/04 01:21:49;;;;;;;0.05;0.05;;;1.70;99.90;;;;;;5047347;28;20045;-82
2022/12/04 01:24:16;;;;;;;0.00;0.00;;;1.70;99.90;;;;;;5049938;28;20116;-83
2022/12/04 01:26:43;;;;;;;0.10;0.10;;;1.70;99.90;;;;;;5040414;28;20045;-82
2022/12/04 01:29:10;;;;;;;0.10;0.10;;;1.80;99.90;;;;;;5046377;28;20420;-82
2022/12/04 01:31:37;;;;;;;0.10;0.10;;;;;;;;;;5044880;28;20059;-82
2022/12/04 01:34:04;;;;;;;0.00;0.00;;;1.80;99.90;;;;;;5046414;28;20041;-82
2022/12/04 01:36:34;;;;;;;0.00;0.00;;;1.80;99.90;;;;;;5045192;28;20052;-82
2022/12/04 01:39:01;;;;;;;0.10;0.10;;;1.80;99.90;;;;;;5049039;28;20045;-82
2022/12/04 01:41:30;;;;;;;0.05;0.05;;;1.70;99.90;;;;;;5050408;28;20045;-82
2022/12/04 01:44:13;;;;;;;0.10;0.10;;;1.70;99.90;;;;;;5047243;28;20044;-82
2022/12/04 01:46:41;;;;;;;0.00;0.00;;;1.80;99.90;;;;;;5044578;28;20077;-82
2022/12/04 01:49:11;;;;;;;0.10;0.10;;;1.90;99.90;;;;;;5041954;28;20501;-83
2022/12/04 01:51:43;;;;;;;0.05;0.05;;;1.90;99.90;;;;;;5047214;28;20045;-82
2022/12/04 01:54:16;;;;;;;0.00;0.00;;;3.00;99.90;;;;;;5040995;28;20080;-82
2022/12/04 01:56:46;;;;;;;0.10;0.10;;;1.90;99.90;;;;;;5042077;28;20049;-83
2022/12/04 01:59:16;;;;;;;0.10;0.10;;;1.90;99.90;;;;;;5047891;28;20072;-82
2022/12/04 02:01:51;;;;;;;0.10;0.10;;;1.90;99.90;;;;;;5046488;28;20128;-83
2022/12/04 02:04:19;;;;;;;0.10;0.10;;;1.80;99.90;;;;;;5040238;28;20048;-83
2022/12/04 02:06:50;;;;;;;0.10;0.10;;;1.80;99.90;;;;;;5043098;28;20045;-82
2022/12/04 02:13:06;;;;;;;0.10;0.10;;;1.90;99.90;;;;;;5041484;28;20040;-82
2022/12/04 02:40:48;;;;;;;0.10;0.10;;;1.30;99.90;;;;;;4974800;28;20140;-80
2022/12/04 03:00:31;;;;;;;0.08;0.08;;;1.50;99.90;;;;;;5133298;23;20054;-82
2022/12/04 03:16:13;;;;;;;0.10;0.10;;;1.50;99.90;;;;;;4911773;28;20592;-81
2022/12/04 03:18:57;;;;;;;0.10;0.10;;;1.50;99.90;;;;;;4949940;28;20043;-82
2022/12/04 03:25:56;;;;;;;0.10;0.10;;;1.40;99.90;;;;;;4934643;28;20042;-81
2022/12/04 03:28:30;;;;;;;0.10;0.10;;;1.40;99.90;;;;;;4946250;28;20433;-81
2022/12/04 03:31:02;;;;;;;0.10;0.10;;;1.40;99.90;;;;;;4965880;28;20053;-81
2022/12/04 03:33:37;;;;;;;0.10;0.10;;;1.40;99.90;;;;;;4969837;28;20077;-82
2022/12/04 03:36:08;;;;;;;0.03;0.03;;;1.30;99.90;;;;;;4969521;28;20046;-81
2022/12/04 03:38:42;;;;;;;0.10;0.10;;;1.30;99.90;;;;;;4968663;28;20121;-82
2022/12/04 03:41:18;;;;;;;0.08;0.08;;;1.40;99.90;;;;;;4970135;28;20110;-81
2022/12/04 03:43:51;;;;;;;0.10;0.10;;;1.50;99.90;;;;;;4955325;28;20508;-82
2022/12/04 03:46:25;;;;;;;0.10;0.10;;;1.50;99.90;;;;;;4966277;28;20069;-82
2022/12/04 03:48:58;;;;;;;0.10;0.10;;;1.50;99.90;;;;;;4969582;28;20101;-81
2022/12/04 03:51:30;;;;;;;0.10;0.10;;;1.50;99.90;;;;;;4970983;28;20146;-82
2022/12/04 03:54:03;;;;;;;0.10;0.10;;;1.60;99.90;;;;;;4974351;28;20046;-81
2022/12/04 03:56:34;;;;;;;0.00;0.00;;;1.50;99.90;;;;;;4953099;28;20078;-81
2022/12/04 03:59:08;;;;;;;0.10;0.10;;;1.50;99.90;;;;;;4967496;28;20596;-81
2022/12/04 04:01:43;;;;;;;0.10;0.10;;;1.60;99.90;;;;;;4970170;28;20113;-83
2022/12/04 04:04:14;;;;;;;0.10;0.10;;;2.40;99.90;;;;;;4971258;28;20043;-81
2022/12/04 04:07:27;;;;;;;0.00;0.00;;;1.30;99.90;;;;;;4972781;28;20134;-82
2022/12/04 04:11:21;;;;;;;0.10;0.10;;;1.20;99.90;;;;;;4953889;28;20095;-81
2022/12/04 04:26:14;;;;;;;0.10;0.10;;;1.20;99.90;;;;;;4907148;29;20476;-82
2022/12/04 04:28:43;;;;;;;0.10;0.10;;;1.20;99.90;;;;;;4938334;28;20052;-81
2022/12/04 04:31:33;;;;;;;0.10;0.10;;;1.20;99.90;;;;;;4953678;28;20055;-81
2022/12/04 04:35:00;;;;;;;0.10;0.10;;;1.10;99.90;;;;;;4938562;28;20054;-81
2022/12/04 04:39:30;;;;;;;0.10;0.10;;;1.20;99.90;;;;;;4914782;29;20091;-81
2022/12/04 04:43:17;;;;;;;0.10;0.10;;;1.20;99.90;;;;;;4863581;29;20040;-81
2022/12/04 04:47:00;;;;;;;0.20;0.20;;;1.20;99.90;;;;;;4874382;29;20143;-81
2022/12/04 04:49:31;;;;;;;0.17;0.17;;;1.20;99.90;;;;;;4872650;29;20054;-80
2022/12/04 04:51:59;;;;;;;0.10;0.10;;;1.30;99.90;;;;;;4857592;29;20112;-81
2022/12/04 04:54:28;;;;;;;0.10;0.10;;;1.30;99.90;;;;;;4926186;29;20052;-82
2022/12/04 04:56:55;;;;;;;0.20;0.20;;;;;;;;;;4928607;29;20166;-80
2022/12/04 04:59:23;;;;;;;0.10;0.10;;;;;;;;;;4928495;29;20055;-82
2022/12/04 05:01:51;;;;;;;0.10;0.10;;;1.40;99.90;;;;;;4929739;29;20435;-81
2022/12/04 05:04:18;;;;;;;0.10;0.10;;;;;;;;;;4911508;29;20055;-81
2022/12/04 05:06:47;;;;;;;0.10;0.10;;;;;;;;;;4912591;29;20051;-81
2022/12/04 05:09:14;;;;;;;0.10;0.10;;;1.30;99.90;;;;;;4950701;28;20065;-82
2022/12/04 05:11:41;;;;;;;0.10;0.10;;;1.30;99.90;;;;;;4968564;28;20418;-82
2022/12/04 05:15:15;;;;;;;0.03;0.03;;;1.30;99.90;;;;;;4970199;28;20043;-81
2022/12/04 05:22:09;;;;;;;0.10;0.10;;;1.30;99.90;;;;;;4965780;28;20050;-81
2022/12/04 05:24:36;;;;;;;0.10;0.10;;;1.20;99.90;;;;;;4964181;28;20105;-82
2022/12/04 05:27:10;;;;;;;0.00;0.00;;;1.20;99.90;;;;;;4970872;28;20047;-81
2022/12/04 05:30:10;;;;;;;0.10;0.10;;;2.20;99.90;;;;;;4969933;28;20130;-81
2022/12/04 05:32:37;;;;;;;0.10;0.10;;;;;;;;;;4974396;28;20031;-81
2022/12/04 05:39:12;;;;;;;0.10;0.10;;;1.30;99.90;;;;;;4955416;28;20043;-81
2022/12/04 05:41:55;;;;;;;0.10;0.10;;;1.30;99.90;;;;;;4948287;28;20063;-82
2022/12/04 05:49:21;;;;;;;0.10;0.10;;;1.30;99.90;;;;;;4935377;28;20036;-81
2022/12/04 05:52:47;;;;;;;0.10;0.10;;;1.20;99.90;;;;;;4936575;29;20087;-81
2022/12/04 05:56:15;;;;;;;0.10;0.10;;;1.20;99.90;;;;;;4935977;29;20059;-81
2022/12/04 06:06:38;;;;;;;0.10;0.10;;;1.30;99.90;;;;;;4932160;29;20067;-82
2022/12/04 06:09:31;;;;;;;0.10;0.10;;;1.10;99.90;;;;;;4934803;29;20112;-81
2022/12/04 06:13:12;;;;;;;0.10;0.10;;;1.20;99.90;;;;;;4945211;28;20069;-81
2022/12/04 06:16:04;;;;;;;0.10;0.10;;;1.20;99.90;;;;;;4972556;28;20099;-82
2022/12/04 06:21:47;;;;;;;0.10;0.10;;;1.10;99.90;;;;;;4972494;28;20121;-81
2022/12/04 06:24:20;;;;;;;0.10;0.10;;;1.10;99.90;;;;;;4974355;28;20046;-81
2022/12/04 06:26:47;;;;;;;;;;;1.10;99.90;;;;;;4974265;28;20043;-81
2022/12/04 06:29:34;;;;;;;0.10;0.10;;;;;;;;;;4967499;28;20391;-81
2022/12/04 06:32:53;;;;;;;0.10;0.10;;;1.20;99.90;;;;;;4983146;28;20042;-82
2022/12/04 06:39:58;;;;;;;0.10;0.10;;;1.00;99.90;;;;;;4979835;28;20049;-81
2022/12/04 06:43:10;;;;;;;0.10;0.10;;;0.90;99.90;;;;;;4970631;28;20070;-81
2022/12/04 06:50:00;;;;;;;0.10;0.10;;;1.10;99.90;;;;;;4963940;28;20463;-81
2022/12/04 06:53:13;;;;;;;0.10;0.10;;;1.20;99.90;;;;;;4975437;28;20055;-81
2022/12/04 06:56:40;;;;;;;0.10;0.10;;;1.20;99.90;;;;;;4970672;28;20042;-80
2022/12/04 07:00:09;;;;;;;0.10;0.10;;;1.10;99.90;;;;;;4975491;28;20043;-81
2022/12/04 07:03:20;;;;;;;0.10;0.10;;;1.20;99.90;;;;;;4971395;28;20042;-81
2022/12/04 07:18:06;;;;;;;0.20;0.20;;;1.10;99.90;;;;;;4974758;28;20054;-81
2022/12/04 07:21:22;;;;;;;0.10;0.10;;;1.10;99.90;;;;;;4972855;28;20039;-81
2022/12/04 07:25:18;;;;;;;0.20;0.20;;;1.20;99.90;;;;;;4914756;29;20043;-81
2022/12/04 07:28:10;;;;;;;0.10;0.10;;;1.30;99.90;;;;;;4911590;29;20047;-82
2022/12/04 07:31:00;;;;;;;0.10;0.10;;;1.30;99.90;;;;;;4899172;29;20100;-81
2022/12/04 07:34:07;;;;;;;0.10;0.10;;;;;;;;;;4910910;29;20077;-82
2022/12/04 07:36:57;;;;;;;0.00;0.00;;;1.30;99.90;;;;;;4919469;29;20075;-81
2022/12/04 07:39:49;;;;;;;0.10;0.10;;;1.40;99.90;;;;;;4911209;29;20048;-82
2022/12/04 07:42:22;;;;;;;0.10;0.10;;;1.40;99.90;;;;;;4910611;29;20071;-81
2022/12/04 07:44:50;;;;;;;0.00;0.00;;;1.50;99.90;;;;;;4889716;29;20188;-80
2022/12/04 07:51:46;;;;;;;0.10;0.10;;;1.50;99.90;;;;;;4963249;28;20046;-81
2022/12/04 07:54:19;;;;;;;0.00;0.00;;;1.60;99.90;;;;;;4969704;28;20081;-81
2022/12/04 07:57:08;;;;;;;0.10;0.10;;;1.60;99.90;;;;;;4968632;28;20133;-82
2022/12/04 07:59:44;;;;;;;0.10;0.10;;;1.50;99.90;;;;;;4970744;28;20047;-82
2022/12/04 08:02:31;;;;;;;0.10;0.10;;;1.40;99.90;;;;;;4966966;28;20492;-81
2022/12/04 08:05:19;;;;;;;0.10;0.10;;;1.40;99.90;;;;;;4969997;28;20035;-81
2022/12/04 08:07:46;;;;;;;0.10;0.10;;;1.50;99.90;;;;;;4970022;28;20103;-81
2022/12/04 08:10:13;;;;;;;0.10;0.10;;;;;;;;;;4971869;28;20594;-81
2022/12/04 08:12:40;;;;;;;0.10;0.10;;;;;;;;;;4968932;28;20129;-81
2022/12/04 08:15:09;;;;;;;0.10;0.10;;;1.50;99.90;;;;;;4967531;28;20069;-81
2022/12/04 08:18:56;;;;;;;0.10;0.10;;;1.60;99.90;;;;;;4933262;29;20135;-81
2022/12/04 08:23:16;;;;;;;0.10;0.10;;;1.60;99.90;;;;;;4937705;29;20051;-80
2022/12/04 08:26:43;;;;;;;0.10;0.10;;;1.50;99.90;;;;;;4933900;29;20043;-81
2022/12/04 08:30:50;;;;;;;0.10;0.10;;;1.40;99.90;;;;;;4929988;29;20080;-80
2022/12/04 08:33:28;;;;;;;0.17;0.17;;;1.30;99.90;;;;;;4931829;28;20099;-80
2022/12/04 08:36:11;;;;;;;0.10;0.10;;;1.30;99.90;;;;;;4924658;29;20469;-84
2022/12/04 08:38:38;;;;;;;0.13;0.13;;;1.30;99.90;;;;;;4927501;29;20167;-82
2022/12/04 08:41:07;;;;;;;0.10;0.10;;;1.50;99.90;;;;;;4932316;29;20509;-81
2022/12/04 08:43:34;;;;;;;0.10;0.10;;;;;;;;;;4932740;29;20079;-82
2022/12/04 08:46:02;;;;;;;0.10;0.10;;;1.60;99.90;;;;;;4928470;29;20052;-82
2022/12/04 08:48:31;;;;;;;0.10;0.10;;;1.60;99.90;;;;;;4942805;28;20090;-81
2022/12/04 08:50:59;;;;;;;0.10;0.10;;;1.50;99.90;;;;;;4968744;28;20043;-81
2022/12/04 08:53:26;;;;;;;0.05;0.05;;;;;;;;;;4966820;28;20085;-81
2022/12/04 08:55:53;;;;;;;0.10;0.10;;;1.50;99.90;;;;;;4968293;28;20582;-81
2022/12/04 08:58:40;;;;;;;0.03;0.03;;;1.50;99.90;;;;;;4971132;28;20512;-81
2022/12/04 09:01:31;;;;;;;0.10;0.10;;;1.50;99.90;;;;;;4969864;28;20065;-81
2022/12/04 09:04:40;;;;;;;0.10;0.10;;;1.50;99.90;;;;;;4975759;28;20065;-81
2022/12/04 09:12:21;;;;;;;0.00;0.00;;;1.70;99.90;;;;;;4977142;28;20158;-81
2022/12/04 09:15:23;;;;;;;0.10;0.10;;;1.70;99.90;;;;;;5000183;23;20049;-85
2022/12/04 09:17:50;;;;;;;0.10;0.10;;;;;;;;;;4983379;28;20096;-84
2022/12/04 09:20:17;;;;;;;0.10;0.10;;;1.80;99.90;;;;;;4992631;28;20110;-84
2022/12/04 09:22:44;;;;;;;0.10;0.10;;;;;;;;;;4994894;28;20142;-85
2022/12/04 09:25:29;;;;;;;0.00;0.00;;;;;;;;;;4974408;28;20040;-84
2022/12/04 09:27:57;;;;;;;0.10;0.10;;;1.60;99.90;;;;;;4976585;28;20077;-85
2022/12/04 09:30:24;;;;;;;0.00;0.00;;;;;;;;;;4953855;28;20075;-84
2022/12/04 09:32:52;;;;;;;0.00;0.00;;;;;;;;;;4974994;28;20047;-86
2022/12/04 09:35:19;;;;;;;0.00;0.00;;;1.60;99.90;;;;;;4973639;28;20579;-84
2022/12/04 09:37:46;;;;;;;0.10;0.10;;;;;;;;;;4975986;28;20126;-85
2022/12/04 09:40:23;;;;;;;0.10;0.10;;;1.70;99.90;;;;;;4957685;28;20047;-84
2022/12/04 09:43:01;;;;;;;0.10;0.10;;;1.70;99.90;;;;;;4971525;28;20504;-85
2022/12/04 09:45:28;;;;;;;0.08;0.08;;;;;;;;;;4959304;28;20734;-84
2022/12/04 09:47:58;;;;;;;0.10;0.10;;;1.80;99.90;;;;;;4970622;28;20559;-85
2022/12/04 09:50:33;;;;;;;0.10;0.10;;;1.80;99.90;;;;;;4959125;28;20074;-85
2022/12/04 09:53:02;;;;;;;0.10;0.10;;;1.80;99.90;;;;;;4977096;28;20133;-84
2022/12/04 09:55:33;;;;;;;0.10;0.10;;;1.90;99.90;;;;;;4956108;28;20102;-85
2022/12/04 09:58:05;;;;;;;0.17;0.17;;;1.70;99.90;;;;;;4974591;28;20077;-85
2022/12/04 10:00:37;;;;;;;0.10;0.10;;;1.70;99.90;;;;;;4970082;28;20485;-84
2022/12/04 10:03:11;;;;;;;0.10;0.10;;;1.80;99.90;;;;;;4959389;28;20142;-85
2022/12/04 10:05:48;;;;;;;0.10;0.10;;;1.80;99.90;;;;;;4956441;28;20048;-85
2022/12/04 10:08:20;;;;;;;0.10;0.10;;;1.80;99.90;;;;;;4958862;28;20053;-85
2022/12/04 10:10:56;;;;;;;0.10;0.10;;;1.80;99.90;;;;;;4970589;28;20560;-84
2022/12/04 10:14:01;;;;;;;0.10;0.10;;;1.80;99.90;;;;;;4976230;28;20054;-85
2022/12/04 10:16:41;;;;;;;0.10;0.10;;;1.90;99.90;;;;;;4972392;28;20083;-85
2022/12/04 10:19:14;;;;;;;;;;;1.90;99.90;;;;;;4972085;28;20062;-85
2022/12/04 10:21:57;;;;;;;0.00;0.00;;;1.80;99.90;;;;;;4967287;28;19977;-86
2022/12/04 10:24:37;;;;;;;0.10;0.10;;;1.90;99.90;;;;;;4973763;28;20049;-83
2022/12/04 10:27:09;;;;;;;0.10;0.10;;;1.80;99.90;;;;;;4968175;28;20074;-85
2022/12/04 10:29:41;;;;;;;0.10;0.10;;;1.90;99.90;;;;;;4959556;28;20042;-84
2022/12/04 10:32:18;;;;;;;0.00;0.00;;;2.00;99.90;;;;;;4975373;28;20483;-84
2022/12/04 10:34:47;;;;;;;0.10;0.10;;;2.00;99.90;;;;;;4961471;28;20051;-84
2022/12/04 10:37:14;;;;;;;0.10;0.10;;;;;;;;;;4971558;28;20137;-84
2022/12/04 10:39:48;;;;;;;0.10;0.10;;;2.10;99.90;;;;;;4967867;28;20046;-84
2022/12/04 10:42:24;;;;;;;0.10;0.10;;;2.10;99.90;;;;;;4970503;28;20460;-84
2022/12/04 10:44:53;;;;;;;0.05;0.05;;;2.10;99.90;;;;;;4967731;28;20404;-84
2022/12/04 10:47:23;;;;;;;0.03;0.03;;;2.00;99.90;;;;;;4955724;28;20047;-84
2022/12/04 10:49:57;;;;;;;0.10;0.10;;;2.00;99.90;;;;;;4963030;28;20093;-84
2022/12/04 10:52:24;;;;;;;0.00;0.00;;;0.90;99.90;;;;;;4968520;28;20752;-84
2022/12/04 10:54:56;;;;;;;0.10;0.10;;;2.10;99.90;;;;;;4975958;28;20464;-85
2022/12/04 10:57:47;;;;;;;0.10;0.10;;;2.20;99.90;;;;;;4972417;28;20101;-85
2022/12/04 11:00:27;;;;;;;0.10;0.10;;;2.20;99.90;;;;;;4960763;28;20043;-87
2022/12/04 11:02:55;;;;;;;0.08;0.08;;;2.20;99.90;;;;;;4955112;28;20075;-86
2022/12/04 11:05:25;;;;;;;0.10;0.10;;;2.10;99.90;;;;;;4966009;28;20130;-85
2022/12/04 11:07:53;;;;;;;0.10;0.10;;;;;;;;;;4969953;28;20133;-86
2022/12/04 11:10:23;;;;;;;0.10;0.10;;;2.00;99.90;;;;;;4967446;28;20113;-85
2022/12/04 11:12:54;;;;;;;;;;;1.90;99.90;;;;;;4961113;28;20082;-86
2022/12/04 11:15:22;;;;;;;0.10;0.10;;;1.90;99.90;;;;;;4966730;28;19926;-86
2022/12/04 11:17:51;;;;;;;0.10;0.10;;;1.90;99.90;;;;;;4970194;28;20073;-85
2022/12/04 11:20:20;;;;;;;0.10;0.10;;;1.90;99.90;;;;;;4971845;28;20049;-86
2022/12/04 11:22:50;;;;;;;0.10;0.10;;;1.80;99.90;;;;;;4970755;28;20058;-84
2022/12/04 11:25:19;;;;;;;0.10;0.10;;;1.70;99.90;;;;;;4975704;28;20051;-85
2022/12/04 11:27:49;;;;;;;0.10;0.10;;;1.80;99.90;;;;;;4957389;28;20126;-86
2022/12/04 11:30:21;;;;;;;0.15;0.15;;;1.80;99.90;;;;;;4970451;28;20157;-86
2022/12/04 11:32:48;;;;;;;0.10;0.10;;;;;;;;;;4971416;28;20046;-85
2022/12/04 11:35:20;;;;;;;0.10;0.10;;;1.90;99.90;;;;;;4968034;28;20050;-84
2022/12/04 11:37:53;;;;;;;0.00;0.00;;;1.90;99.90;;;;;;4971716;28;20105;-84
2022/12/04 11:40:21;;;;;;;0.10;0.10;;;1.90;99.90;;;;;;4964550;28;20129;-84
2022/12/04 11:43:02;;;;;;;0.10;0.10;;;2.00;99.90;;;;;;4970850;28;20046;-84
2022/12/04 11:45:29;;;;;;;0.20;0.20;;;2.00;99.90;;;;;;4968141;28;20539;-85
2022/12/04 11:47:57;;;;;;;0.10;0.10;;;2.00;99.90;;;;;;4955342;28;20055;-84
2022/12/04 11:50:32;;;;;;;0.10;0.10;;;2.20;99.90;;;;;;4970258;28;20034;-85
2022/12/04 11:53:09;;;;;;;0.10;0.10;;;2.10;99.90;;;;;;4971178;28;20389;-85
2022/12/04 11:55:47;;;;;;;0.00;0.00;;;2.20;99.90;;;;;;4954928;28;20146;-85
2022/12/04 11:58:43;;;;;;;0.03;0.03;;;2.30;99.90;;;;;;4964410;28;20076;-86
2022/12/04 12:01:24;;;;;;;0.00;0.00;;;2.30;99.90;;;;;;4966738;28;20449;-85
2022/12/04 12:04:06;;;;;;;0.10;0.10;;;2.10;99.90;;;;;;4952439;28;20046;-82
2022/12/04 12:06:36;;;;;;;0.10;0.10;;;2.10;99.90;;;;;;4963806;28;20043;-86
2022/12/04 12:09:21;;;;;;;0.10;0.10;;;2.10;99.90;;;;;;4956015;28;20071;-84
2022/12/04 12:11:55;;;;;;;0.10;0.10;;;2.10;99.90;;;;;;4951033;28;20067;-84
2022/12/04 12:14:31;;;;;;;0.03;0.03;;;2.20;99.90;;;;;;4966319;28;20051;-84
2022/12/04 12:17:09;;;;;;;0.00;0.00;;;2.20;99.90;;;;;;4969662;28;20138;-84
2022/12/04 12:19:59;;;;;;;0.10;0.10;;;2.10;99.90;;;;;;4970231;28;20789;-85
2022/12/04 12:23:02;;;;;;;0.10;0.10;;;2.10;99.90;;;;;;4966557;28;20306;-84
2022/12/04 12:25:37;;;;;;;0.00;0.00;;;2.10;99.90;;;;;;4939700;28;20310;-87
2022/12/04 12:28:15;;;;;;;0.10;0.10;;;2.00;99.90;;;;;;4965759;28;20133;-83
2022/12/04 12:30:56;;;;;;;0.10;0.10;;;2.00;99.90;;;;;;4970248;28;20095;-82
2022/12/04 12:33:34;;;;;;;0.08;0.08;;;2.10;99.90;;;;;;4969636;28;20050;-82
2022/12/04 12:36:05;;;;;;;0.00;0.00;;;2.10;99.90;;;;;;4958685;28;20118;-83
2022/12/04 12:38:38;;;;;;;0.10;0.10;;;2.10;99.90;;;;;;4972493;28;20051;-84
2022/12/04 12:41:11;;;;;;;0.10;0.10;;;2.10;99.90;;;;;;4956394;28;20161;-84
2022/12/04 12:43:39;;;;;;;0.10;0.10;;;;;;;;;;4967066;28;20233;-84
2022/12/04 12:46:10;;;;;;;0.10;0.10;;;2.10;99.90;;;;;;4961821;28;20050;-85
2022/12/04 12:48:51;;;;;;;0.10;0.10;;;2.20;99.90;;;;;;4975581;28;20094;-84
2022/12/04 12:54:50;;;;;;;0.00;0.00;;;2.30;99.90;;;;;;4963805;28;20020;-87
2022/12/04 12:57:46;;;;;;;0.10;0.10;;;2.20;99.90;;;;;;4977952;28;20120;-88
2022/12/04 13:01:20;;;;;;;0.10;0.10;;;1.90;99.90;;;;;;4958566;28;20045;-86
2022/12/04 13:04:54;;;;;;;0.10;0.10;;;1.90;99.90;;;;;;4970064;28;20069;-84
2022/12/04 13:08:23;;;;;;;0.10;0.10;;;1.90;99.90;;;;;;4950011;28;20110;-86
2022/12/04 13:11:29;;;;;;;0.10;0.10;;;1.90;99.90;;;;;;4964010;28;20772;-85
2022/12/04 13:14:03;;;;;;;0.10;0.10;;;1.90;99.90;;;;;;4964907;28;20062;-84
2022/12/04 13:16:36;;;;;;;0.10;0.10;;;1.70;99.90;;;;;;4966713;28;20051;-85
2022/12/04 13:19:17;;;;;;;0.10;0.10;;;2.00;99.90;;;;;;4974193;28;20039;-84
2022/12/04 13:22:12;;;;;;;0.05;0.05;;;2.10;99.90;;;;;;4960051;28;21062;-86
2022/12/04 13:24:57;;;;;;;0.03;0.03;;;2.10;99.90;;;;;;4950322;28;20056;-84
2022/12/04 13:27:35;;;;;;;0.05;0.05;;;2.10;99.90;;;;;;4966854;28;20109;-87
2022/12/04 13:30:31;;;;;;;0.10;0.10;;;2.10;99.90;;;;;;4951193;28;20572;-87
2022/12/04 13:33:26;;;;;;;0.10;0.10;;;1.80;99.90;;;;;;4938215;28;20059;-85
2022/12/04 13:36:23;;;;;;;0.10;0.10;;;1.80;99.90;;;;;;4964546;28;20445;-86
2022/12/04 13:39:16;;;;;;;0.10;0.10;;;1.80;99.90;;;;;;4952846;28;20462;-88
2022/12/04 13:41:44;;;;;;;0.10;0.10;;;;;;;;;;4948474;28;20484;-89
2022/12/04 13:44:13;;;;;;;0.10;0.10;;;1.90;99.90;;;;;;4952576;28;20070;-89
2022/12/04 13:46:53;;;;;;;0.10;0.10;;;1.90;99.90;;;;;;4956182;28;20055;-89
2022/12/04 13:49:28;;;;;;;0.10;0.10;;;1.90;99.90;;;;;;4959782;28;20066;-88
2022/12/04 13:51:56;;;;;;;0.10;0.10;;;1.90;99.90;;;;;;4952927;28;20050;-89
2022/12/04 13:54:29;;;;;;;0.10;0.10;;;2.00;99.90;;;;;;4969934;28;20051;-89
2022/12/04 13:57:15;;;;;;;0.10;0.10;;;2.00;99.90;;;;;;4956257;28;20069;-88
2022/12/04 13:59:43;;;;;;;0.10;0.10;;;2.00;99.90;;;;;;4964460;28;20051;-89
2022/12/04 14:02:27;;;;;;;0.00;0.00;;;2.00;99.90;;;;;;4976099;28;20512;-89
2022/12/04 14:04:59;;;;;;;0.00;0.00;;;3.00;99.90;;;;;;4951679;28;20077;-83
2022/12/04 14:07:49;;;;;;;0.10;0.10;;;1.90;99.90;;;;;;4963551;28;20086;-84
2022/12/04 14:10:26;;;;;;;0.08;0.08;;;2.00;99.90;;;;;;4966324;28;20047;-86
2022/12/04 14:12:58;;;;;;;0.10;0.10;;;4.70;99.90;;;;;;4956272;28;20046;-84
2022/12/04 14:15:33;;;;;;;0.10;0.10;;;2.00;99.90;;;;;;4955858;28;20087;-86
2022/12/04 14:18:18;;;;;;;0.10;0.10;;;2.00;99.90;;;;;;4971602;28;20051;-86
2022/12/04 14:20:58;;;;;;;0.10;0.10;;;1.70;99.90;;;;;;4973722;28;20047;-87
2022/12/04 14:23:32;;;;;;;0.13;0.13;;;2.20;99.90;;;;;;4964392;28;20077;-86
2022/12/04 14:26:01;;;;;;;0.10;0.10;;;;;;;;;;4973034;28;20059;-86
2022/12/04 14:28:41;;;;;;;0.10;0.10;;;2.10;99.90;;;;;;4968508;28;20523;-85
2022/12/04 14:31:22;;;;;;;0.10;0.10;;;2.10;99.90;;;;;;4973518;28;20089;-86
2022/12/04 14:33:54;;;;;;;0.10;0.10;;;2.10;99.90;;;;;;4958429;28;20043;-86
2022/12/04 14:36:25;;;;;;;0.10;0.10;;;2.10;99.90;;;;;;4960325;28;20490;-85
2022/12/04 14:39:01;;;;;;;0.00;0.00;;;2.10;99.90;;;;;;4973712;28;20055;-85
2022/12/04 14:41:28;;;;;;;0.10;0.10;;;;;;;;;;4949471;28;20054;-85
2022/12/04 14:43:59;;;;;;;0.00;0.00;;;2.20;99.90;;;;;;4971892;28;20133;-86
2022/12/04 14:46:35;;;;;;;0.10;0.10;;;2.20;99.90;;;;;;4970764;28;20054;-86
2022/12/04 14:49:15;;;;;;;0.08;0.08;;;2.30;99.90;;;;;;4960371;28;20134;-85
2022/12/04 14:51:54;;;;;;;;;;;2.10;99.90;;;;;;4971727;28;20081;-84
2022/12/04 14:54:29;;;;;;;0.10;0.10;;;2.20;99.90;;;;;;4972603;28;19922;-86
2022/12/04 14:57:11;;;;;;;0.10;0.10;;;2.10;99.90;;;;;;4972720;28;20082;-86
2022/12/04 14:59:43;;;;;;;0.10;0.10;;;2.00;99.90;;;;;;4960539;28;20055;-85
2022/12/04 15:02:14;;;;;;;0.10;0.10;;;1.80;99.90;;;;;;4982459;28;20043;-85
2022/12/04 15:04:45;;;;;;;0.10;0.10;;;;;;;;;;4955876;28;20356;-85
2022/12/04 15:07:21;;;;;;;0.10;0.10;;;1.90;99.90;;;;;;4958171;28;20055;-85
2022/12/04 15:12:43;;;;;;;0.10;0.10;;;1.90;99.90;;;;;;4981003;28;20102;-86
2022/12/04 15:15:18;;;;;;;0.15;0.15;;;2.00;99.90;;;;;;4958018;28;20078;-84
2022/12/04 15:17:55;;;;;;;0.10;0.10;;;2.00;99.90;;;;;;4966169;28;20050;-85
2022/12/04 15:20:22;;;;;;;0.10;0.10;;;2.00;99.90;;;;;;4974421;28;20053;-85
2022/12/04 15:22:56;;;;;;;0.10;0.10;;;1.90;99.90;;;;;;4975607;28;20055;-85
2022/12/04 15:25:26;;;;;;;0.10;0.10;;;1.90;99.90;;;;;;4971097;28;20085;-85
2022/12/04 15:28:07;;;;;;;0.10;0.10;;;1.90;99.90;;;;;;4977343;28;20139;-86
2022/12/04 15:30:38;;;;;;;0.10;0.10;;;1.90;99.90;;;;;;4954581;28;20081;-86
2022/12/04 15:33:06;;;;;;;0.10;0.10;;;;;;;;;;4967085;28;20101;-85
2022/12/04 15:35:33;;;;;;;0.10;0.10;;;;;;;;;;4971334;28;20054;-85
2022/12/04 15:38:02;;;;;;;0.10;0.10;;;2.00;99.90;;;;;;4973052;28;20488;-85
2022/12/04 15:40:29;;;;;;;0.10;0.10;;;2.10;99.90;;;;;;4974335;28;20449;-86
2022/12/04 15:43:13;;;;;;;0.08;0.08;;;2.10;99.90;;;;;;4974397;28;20085;-84
2022/12/04 15:45:41;;;;;;;0.10;0.10;;;;;;;;;;4968942;28;20051;-86
2022/12/04 15:48:08;;;;;;;0.10;0.10;;;;;;;;;;4970500;28;20071;-86
2022/12/04 15:50:35;;;;;;;0.10;0.10;;;;;;;;;;4973899;28;20094;-85
2022/12/04 15:53:11;;;;;;;0.10;0.10;;;2.20;99.90;;;;;;4967111;28;20073;-85
2022/12/04 15:55:47;;;;;;;0.10;0.10;;;2.20;99.90;;;;;;4970326;28;20062;-86
2022/12/04 15:58:21;;;;;;;0.10;0.10;;;2.10;99.90;;;;;;4970892;28;20047;-86
2022/12/04 16:00:54;;;;;;;0.10;0.10;;;2.10;99.90;;;;;;4981023;28;20049;-84
2022/12/04 16:03:24;;;;;;;0.10;0.10;;;1.90;99.90;;;;;;4976955;28;20125;-86
2022/12/04 16:06:02;;;;;;;0.10;0.10;;;2.10;99.90;;;;;;4973752;28;20054;-85
2022/12/04 16:08:33;;;;;;;0.10;0.10;;;2.30;99.90;;;;;;4978000;28;20058;-86
2022/12/04 16:11:02;;;;;;;0.10;0.10;;;2.30;99.90;;;;;;4975099;28;20047;-85
2022/12/04 16:13:32;;;;;;;0.10;0.10;;;2.30;99.90;;;;;;4973565;28;20078;-85
2022/12/04 16:15:59;;;;;;;0.00;0.00;;;;;;;;;;4955279;28;20116;-85
2022/12/04 16:18:27;;;;;;;0.10;0.10;;;;;;;;;;4974764;28;20070;-86
2022/12/04 16:20:54;;;;;;;0.00;0.00;;;2.00;99.90;;;;;;4970044;28;20050;-85
2022/12/04 16:23:25;;;;;;;0.10;0.10;;;5.00;99.90;;;;;;4972955;28;20708;-86
2022/12/04 16:25:54;;;;;;;0.10;0.10;;;2.00;99.90;;;;;;4965730;28;20078;-85
2022/12/04 16:28:21;;;;;;;0.10;0.10;;;;;;;;;;4968905;28;20089;-85
2022/12/04 16:30:50;;;;;;;0.10;0.10;;;2.00;99.90;;;;;;4973747;28;20114;-86
2022/12/04 16:33:18;;;;;;;0.10;0.10;;;;;;;;;;4966309;28;20073;-86
2022/12/04 16:35:45;;;;;;;0.10;0.10;;;;;;;;;;4966460;28;20098;-85
2022/12/04 16:38:15;;;;;;;0.10;0.10;;;2.20;99.90;;;;;;4965086;28;20643;-84
2022/12/04 16:40:45;;;;;;;0.20;0.20;;;2.30;99.90;;;;;;4970147;28;20460;-87
2022/12/04 16:43:24;;;;;;;0.03;0.03;;;2.30;99.90;;;;;;4952977;28;20063;-87